Time;durP1;ratioP1;P1;durP2;ratioP2;P2;SDS_P1;SDS_P2;PMS_P1;PMS_P2;Temp;Humidity;BMP_temperature;BMP_pressure;BME280_temperature;BME280_humidity;BME280_pressure;Samples;Min_cycle;Max_cycle;Signal;HPM_P1;HPM_P2
2023/10/26 00:01:11;;;;;;;;;4.00;4.00;;;;;;;;5068050;28;8912;-82
2023/10/26 00:03:38;;;;;;;;;6.00;6.00;;;;;;;;5072646;28;8924;-81
2023/10/26 00:06:07;;;;;;;;;4.00;4.00;;;;;;;;5072599;28;9659;-82
2023/10/26 00:08:34;;;;;;;;;9.00;6.00;;;;;;;;5073669;28;8946;-83
2023/10/26 00:11:03;;;;;;;;;6.50;6.50;;;;;;;;5072174;28;9038;-82
2023/10/26 00:13:30;;;;;;;;;9.33;9.33;;;;;;;;5073315;28;8874;-82
2023/10/26 00:15:57;;;;;;;;;10.00;10.00;;;;;;;;5068535;28;8946;-82
2023/10/26 00:18:27;;;;;;;;;8.00;6.67;;;;;;;;5057380;28;9213;-82
2023/10/26 00:20:58;;;;;;;;;7.00;7.00;;;;;;;;5067645;28;8954;-82
2023/10/26 00:23:27;;;;;;;;;8.25;8.25;;;;;;;;5057329;28;9015;-82
2023/10/26 00:25:54;;;;;;;;;8.00;7.00;;;;;;;;5063686;28;8857;-82
2023/10/26 00:28:21;;;;;;;;;8.00;6.25;;;;;;;;5059539;28;8956;-82
2023/10/26 00:30:49;;;;;;;;;4.00;4.00;;;;;;;;5066973;28;8783;-82
2023/10/26 00:33:16;;;;;;;;;6.50;4.00;;;;;;;;5065930;28;8885;-82
2023/10/26 00:35:43;;;;;;;;;4.00;4.00;;;;;;;;5054439;28;8838;-82
2023/10/26 00:38:10;;;;;;;;;6.00;4.75;;;;;;;;5067782;28;8872;-82
2023/10/26 00:40:40;;;;;;;;;5.00;5.00;;;;;;;;5066905;28;8929;-82
2023/10/26 00:43:07;;;;;;;;;5.75;5.75;;;;;;;;5066653;28;8867;-82
2023/10/26 00:45:36;;;;;;;;;4.00;4.00;;;;;;;;5067457;28;8847;-83
2023/10/26 00:48:04;;;;;;;;;5.00;5.00;;;;;;;;5068121;28;8847;-82
2023/10/26 00:50:31;;;;;;;;;5.75;4.50;;;;;;;;5065223;28;8941;-82
2023/10/26 00:53:01;;;;;;;;;6.33;5.33;;;;;;;;5053946;28;8847;-82
2023/10/26 00:55:29;;;;;;;;;5.00;5.00;;;;;;;;5067510;28;8952;-81
2023/10/26 00:57:57;;;;;;;;;6.00;6.00;;;;;;;;5067838;28;9085;-83
2023/10/26 01:00:27;;;;;;;;;6.75;6.75;;;;;;;;5067690;28;9732;-83
2023/10/26 01:02:54;;;;;;;;;8.67;7.00;;;;;;;;5069068;28;8846;-82
2023/10/26 01:05:21;;;;;;;;;6.00;6.00;;;;;;;;5071571;28;9069;-82
2023/10/26 01:07:49;;;;;;;;;8.00;8.00;;;;;;;;5070325;28;8961;-83
2023/10/26 01:10:16;;;;;;;;;6.33;6.33;;;;;;;;5070832;28;9509;-82
2023/10/26 01:12:43;;;;;;;;;8.00;7.33;;;;;;;;5070802;28;9022;-82
2023/10/26 01:15:13;;;;;;;;;6.67;6.67;;;;;;;;5070032;28;9033;-82
2023/10/26 01:17:40;;;;;;;;;6.33;5.67;;;;;;;;5070223;28;9156;-82
2023/10/26 01:20:09;;;;;;;;;9.00;9.00;;;;;;;;5070484;28;8953;-81
2023/10/26 01:22:37;;;;;;;;;9.33;8.00;;;;;;;;5070611;28;9088;-82
2023/10/26 01:25:06;;;;;;;;;8.00;8.00;;;;;;;;5102195;28;9013;-82
2023/10/26 01:27:33;;;;;;;;;2.00;2.00;;;;;;;;5069215;28;8975;-82
2023/10/26 01:30:00;;;;;;;;;12.00;10.00;;;;;;;;5069916;28;9821;-81
2023/10/26 01:32:28;;;;;;;;;11.00;11.00;;;;;;;;5058524;28;8912;-82
2023/10/26 01:34:55;;;;;;;;;9.67;9.67;;;;;;;;5069249;28;8951;-82
2023/10/26 01:37:22;;;;;;;;;12.00;9.33;;;;;;;;5071167;28;9179;-83
2023/10/26 01:39:51;;;;;;;;;8.00;8.00;;;;;;;;5068940;28;9196;-83
2023/10/26 01:42:20;;;;;;;;;8.00;8.00;;;;;;;;5070783;28;9227;-83
2023/10/26 01:44:47;;;;;;;;;10.00;10.00;;;;;;;;5069776;28;9230;-83
2023/10/26 01:47:17;;;;;;;;;9.00;9.00;;;;;;;;5070965;28;9309;-82
2023/10/26 01:49:45;;;;;;;;;13.00;11.00;;;;;;;;5071489;28;9087;-83
2023/10/26 01:52:12;;;;;;;;;10.67;10.67;;;;;;;;5071670;28;9186;-82
2023/10/26 01:54:39;;;;;;;;;13.67;13.67;;;;;;;;5074288;28;9250;-81
2023/10/26 01:57:08;;;;;;;;;11.33;11.33;;;;;;;;5074456;28;9328;-82
2023/10/26 01:59:35;;;;;;;;;11.00;11.00;;;;;;;;5073104;28;9356;-82
2023/10/26 02:02:02;;;;;;;;;14.33;13.00;;;;;;;;5072463;28;9379;-82
2023/10/26 02:04:29;;;;;;;;;17.33;15.67;;;;;;;;5068326;28;9440;-83
2023/10/26 02:06:56;;;;;;;;;11.00;11.00;;;;;;;;5070178;28;9330;-83
2023/10/26 02:09:24;;;;;;;;;12.33;12.00;;;;;;;;5067393;28;9290;-83
2023/10/26 02:11:53;;;;;;;;;14.33;14.33;;;;;;;;5069919;28;9257;-83
2023/10/26 02:14:22;;;;;;;;;13.33;12.33;;;;;;;;5066883;28;9399;-83
2023/10/26 02:16:49;;;;;;;;;13.33;13.33;;;;;;;;5069116;28;9549;-83
2023/10/26 02:19:16;;;;;;;;;14.00;11.33;;;;;;;;5067635;28;9288;-83
2023/10/26 02:21:44;;;;;;;;;13.00;9.67;;;;;;;;5051751;28;9330;-83
2023/10/26 02:24:11;;;;;;;;;10.67;10.67;;;;;;;;5069448;28;9185;-84
2023/10/26 02:26:38;;;;;;;;;12.33;11.00;;;;;;;;5069103;28;9469;-82
2023/10/26 02:29:06;;;;;;;;;9.00;9.00;;;;;;;;5069760;28;9186;-82
2023/10/26 02:31:34;;;;;;;;;11.67;11.67;;;;;;;;5069797;28;9043;-82
2023/10/26 02:34:01;;;;;;;;;9.00;9.00;;;;;;;;5070753;28;9365;-82
2023/10/26 02:36:33;;;;;;;;;10.67;10.00;;;;;;;;5071312;28;9174;-82
2023/10/26 02:39:01;;;;;;;;;11.00;10.00;;;;;;;;5068638;28;9084;-82
2023/10/26 02:41:28;;;;;;;;;9.33;9.00;;;;;;;;5068959;28;9011;-83
2023/10/26 02:43:55;;;;;;;;;15.33;14.33;;;;;;;;5069456;28;9228;-83
2023/10/26 02:46:23;;;;;;;;;10.00;8.67;;;;;;;;5068558;28;9113;-83
2023/10/26 02:48:52;;;;;;;;;9.67;9.33;;;;;;;;5069275;28;9022;-83
2023/10/26 02:51:19;;;;;;;;;11.00;11.00;;;;;;;;5068769;28;9006;-82
2023/10/26 02:53:46;;;;;;;;;9.33;8.00;;;;;;;;5069970;28;9849;-82
2023/10/26 02:56:13;;;;;;;;;8.33;6.33;;;;;;;;5068566;28;9019;-82
2023/10/26 02:58:41;;;;;;;;;6.67;6.67;;;;;;;;5068701;28;9685;-82
2023/10/26 03:01:08;;;;;;;;;6.00;6.00;;;;;;;;5067578;28;8822;-82
2023/10/26 03:03:35;;;;;;;;;7.00;7.00;;;;;;;;5068174;28;9091;-82
2023/10/26 03:06:04;;;;;;;;;2.67;2.67;;;;;;;;5068123;28;9111;-82
2023/10/26 03:08:31;;;;;;;;;8.67;7.00;;;;;;;;5069635;28;8935;-82
2023/10/26 03:10:59;;;;;;;;;8.33;8.00;;;;;;;;5067332;28;9011;-82
2023/10/26 03:13:26;;;;;;;;;7.00;7.00;;;;;;;;5068653;28;9070;-82
2023/10/26 03:15:53;;;;;;;;;6.00;6.00;;;;;;;;5068305;28;8865;-83
2023/10/26 03:18:20;;;;;;;;;7.67;7.67;;;;;;;;5068517;28;8878;-82
2023/10/26 03:20:47;;;;;;;;;8.33;7.33;;;;;;;;5068256;28;8930;-83
2023/10/26 03:23:16;;;;;;;;;9.00;5.67;;;;;;;;5067969;28;9031;-83
2023/10/26 03:25:43;;;;;;;;;7.00;7.00;;;;;;;;5093069;28;9049;-83
2023/10/26 03:28:10;;;;;;;;;5.75;5.75;;;;;;;;5061552;28;8939;-83
2023/10/26 03:30:38;;;;;;;;;6.00;6.00;;;;;;;;5066434;28;8767;-83
2023/10/26 03:33:05;;;;;;;;;2.25;2.25;;;;;;;;5068978;28;8960;-82
2023/10/26 03:35:35;;;;;;;;;10.50;8.00;;;;;;;;5066071;28;8839;-83
2023/10/26 03:38:02;;;;;;;;;7.00;5.75;;;;;;;;5068457;28;8850;-82
2023/10/26 03:40:31;;;;;;;;;5.50;5.50;;;;;;;;5069613;28;8997;-83
2023/10/26 03:42:58;;;;;;;;;8.00;8.00;;;;;;;;5070094;28;8942;-82
2023/10/26 03:45:26;;;;;;;;;6.50;6.50;;;;;;;;5074061;28;8885;-83
2023/10/26 03:47:54;;;;;;;;;6.25;5.00;;;;;;;;5072887;28;8870;-82
2023/10/26 03:50:22;;;;;;;;;5.00;5.00;;;;;;;;5067927;28;8869;-83
2023/10/26 03:52:49;;;;;;;;;6.75;6.00;;;;;;;;5066230;28;8865;-81
2023/10/26 03:55:16;;;;;;;;;6.25;4.50;;;;;;;;5069498;28;8871;-83
2023/10/26 03:57:48;;;;;;;;;4.75;4.75;;;;;;;;5067574;28;8866;-83
2023/10/26 04:00:16;;;;;;;;;7.00;5.00;;;;;;;;5067538;28;8869;-84
2023/10/26 04:02:44;;;;;;;;;6.25;6.25;;;;;;;;5065625;28;8843;-82
2023/10/26 04:05:12;;;;;;;;;5.25;5.25;;;;;;;;5067142;28;9636;-81
2023/10/26 04:07:39;;;;;;;;;8.00;6.00;;;;;;;;5074625;28;8843;-82
2023/10/26 04:10:08;;;;;;;;;7.75;7.75;;;;;;;;5067171;28;8866;-82
2023/10/26 04:12:36;;;;;;;;;6.25;6.25;;;;;;;;5065822;28;8971;-81
2023/10/26 04:15:05;;;;;;;;;6.75;6.50;;;;;;;;5067829;28;8859;-84
2023/10/26 04:17:32;;;;;;;;;7.67;6.33;;;;;;;;5070967;28;8847;-84
2023/10/26 04:19:59;;;;;;;;;3.75;3.75;;;;;;;;5070883;28;9072;-81
2023/10/26 04:22:27;;;;;;;;;8.00;6.75;;;;;;;;5067013;28;8946;-80
2023/10/26 04:24:54;;;;;;;;;7.00;5.00;;;;;;;;5067277;28;9645;-81
2023/10/26 04:27:22;;;;;;;;;5.75;5.75;;;;;;;;5054825;28;8867;-81
2023/10/26 04:29:49;;;;;;;;;6.25;6.25;;;;;;;;5067542;28;8989;-84
2023/10/26 04:32:18;;;;;;;;;6.00;6.00;;;;;;;;5065462;28;8830;-81
2023/10/26 04:34:45;;;;;;;;;6.75;6.00;;;;;;;;5065608;28;8839;-82
2023/10/26 04:37:12;;;;;;;;;5.75;5.75;;;;;;;;5068442;28;9648;-83
2023/10/26 04:39:43;;;;;;;;;7.00;5.50;;;;;;;;5069547;28;8889;-82
2023/10/26 04:42:11;;;;;;;;;4.50;4.50;;;;;;;;5070390;28;8932;-83
2023/10/26 04:44:38;;;;;;;;;5.25;4.00;;;;;;;;5069796;28;8993;-82
2023/10/26 04:47:05;;;;;;;;;4.50;4.50;;;;;;;;5069790;28;8966;-82
2023/10/26 04:49:34;;;;;;;;;5.75;5.00;;;;;;;;5073699;28;8869;-81
2023/10/26 04:52:04;;;;;;;;;4.25;4.25;;;;;;;;5069868;28;8847;-82
2023/10/26 04:54:32;;;;;;;;;5.50;5.50;;;;;;;;5068359;28;8835;-80
2023/10/26 04:56:59;;;;;;;;;4.00;4.00;;;;;;;;5070507;28;8978;-83
2023/10/26 04:59:26;;;;;;;;;6.00;6.00;;;;;;;;5070150;28;8859;-82
2023/10/26 05:01:54;;;;;;;;;6.00;4.00;;;;;;;;5069620;28;8811;-79
2023/10/26 05:04:21;;;;;;;;;3.00;3.00;;;;;;;;5070322;28;8958;-83
2023/10/26 05:06:50;;;;;;;;;2.75;2.00;;;;;;;;5070286;28;8997;-83
2023/10/26 05:09:17;;;;;;;;;2.00;2.00;;;;;;;;5069528;28;8863;-82
2023/10/26 05:11:45;;;;;;;;;2.75;2.75;;;;;;;;5070315;28;9620;-83
2023/10/26 05:14:12;;;;;;;;;3.75;3.75;;;;;;;;5068073;28;8866;-80
2023/10/26 05:16:39;;;;;;;;;3.25;3.25;;;;;;;;5070796;28;8855;-81
2023/10/26 05:19:06;;;;;;;;;5.25;5.25;;;;;;;;5068552;28;8847;-81
2023/10/26 05:21:34;;;;;;;;;5.75;5.75;;;;;;;;5069585;28;8985;-81
2023/10/26 05:24:03;;;;;;;;;4.75;4.75;;;;;;;;5067392;28;8957;-82
2023/10/26 05:26:30;;;;;;;;;3.25;3.25;;;;;;;;5059129;28;8876;-82
2023/10/26 05:28:57;;;;;;;;;2.50;2.50;;;;;;;;5070255;28;8879;-80
2023/10/26 05:31:25;;;;;;;;;5.00;5.00;;;;;;;;5073276;28;8895;-79
2023/10/26 05:33:52;;;;;;;;;2.50;2.50;;;;;;;;5072575;28;9385;-80
2023/10/26 05:36:19;;;;;;;;;4.00;2.75;;;;;;;;5073618;28;8860;-80
2023/10/26 05:38:46;;;;;;;;;1.50;1.50;;;;;;;;5072968;28;8877;-80
2023/10/26 05:41:15;;;;;;;;;2.00;2.00;;;;;;;;5071475;28;9005;-79
2023/10/26 05:43:42;;;;;;;;;1.75;1.75;;;;;;;;5069959;28;8842;-80
2023/10/26 05:46:09;;;;;;;;;1.00;1.00;;;;;;;;5068833;28;8859;-79
2023/10/26 05:48:36;;;;;;;;;1.00;1.00;;;;;;;;5068935;28;8870;-79
2023/10/26 05:51:04;;;;;;;;;1.25;1.25;;;;;;;;5068899;28;8989;-81
2023/10/26 05:53:31;;;;;;;;;3.00;3.00;;;;;;;;5068899;28;8861;-81
2023/10/26 05:55:59;;;;;;;;;2.00;2.00;;;;;;;;5068524;28;8872;-80
2023/10/26 05:58:28;;;;;;;;;2.00;2.00;;;;;;;;5058438;28;8976;-81
2023/10/26 06:00:55;;;;;;;;;2.00;2.00;;;;;;;;5067648;28;8771;-80
2023/10/26 06:03:22;;;;;;;;;1.00;1.00;;;;;;;;5069096;28;9244;-80
2023/10/26 06:05:50;;;;;;;;;1.25;1.25;;;;;;;;5068684;28;8854;-80
2023/10/26 06:08:18;;;;;;;;;0.75;0.75;;;;;;;;5069064;28;8842;-83
2023/10/26 06:10:45;;;;;;;;;3.00;1.00;;;;;;;;5067939;28;8851;-81
2023/10/26 06:13:13;;;;;;;;;1.25;1.25;;;;;;;;5069190;28;8847;-81
2023/10/26 06:15:42;;;;;;;;;2.00;2.00;;;;;;;;5069000;28;8941;-79
2023/10/26 06:18:09;;;;;;;;;2.50;1.00;;;;;;;;5068045;28;8867;-81
2023/10/26 06:20:37;;;;;;;;;0.75;0.75;;;;;;;;5068316;28;8847;-81
2023/10/26 06:23:04;;;;;;;;;1.50;1.50;;;;;;;;5069206;28;8964;-81
2023/10/26 06:25:35;;;;;;;;;0.75;0.75;;;;;;;;5065757;28;8861;-81
2023/10/26 06:28:03;;;;;;;;;1.00;1.00;;;;;;;;5059946;28;9671;-80
2023/10/26 06:30:30;;;;;;;;;1.00;1.00;;;;;;;;5068237;28;9518;-81
2023/10/26 06:33:00;;;;;;;;;1.00;1.00;;;;;;;;5068376;28;8889;-80
2023/10/26 06:35:27;;;;;;;;;1.00;1.00;;;;;;;;5068731;28;8876;-81
2023/10/26 06:37:55;;;;;;;;;1.00;1.00;;;;;;;;5068596;28;8851;-80
2023/10/26 06:40:24;;;;;;;;;1.00;1.00;;;;;;;;5067012;28;8862;-80
2023/10/26 06:42:51;;;;;;;;;1.00;1.00;;;;;;;;5069313;28;8981;-77
2023/10/26 06:45:19;;;;;;;;;1.00;1.00;;;;;;;;5070017;28;8871;-81
2023/10/26 06:47:49;;;;;;;;;0.25;0.25;;;;;;;;5069858;28;8851;-79
2023/10/26 06:50:17;;;;;;;;;1.00;1.00;;;;;;;;5055872;28;8983;-79
2023/10/26 06:52:44;;;;;;;;;1.00;1.00;;;;;;;;5067373;28;8842;-82
2023/10/26 06:55:15;;;;;;;;;1.00;1.00;;;;;;;;5068450;28;8997;-79
2023/10/26 06:57:42;;;;;;;;;1.00;1.00;;;;;;;;5067413;28;8885;-78
2023/10/26 07:00:10;;;;;;;;;2.00;2.00;;;;;;;;5067071;28;8847;-80
2023/10/26 07:02:38;;;;;;;;;2.00;2.00;;;;;;;;5066035;28;8893;-82
2023/10/26 07:05:05;;;;;;;;;2.25;2.25;;;;;;;;5068340;28;8847;-80
2023/10/26 07:07:36;;;;;;;;;2.00;2.00;;;;;;;;5068268;28;8865;-78
2023/10/26 07:10:03;;;;;;;;;2.00;2.00;;;;;;;;5068612;28;8855;-78
2023/10/26 07:12:31;;;;;;;;;3.00;3.00;;;;;;;;5069517;28;8910;-79
2023/10/26 07:14:59;;;;;;;;;2.25;2.25;;;;;;;;5070288;28;8933;-78
2023/10/26 07:17:26;;;;;;;;;2.25;2.25;;;;;;;;5068255;28;8878;-75
2023/10/26 07:19:54;;;;;;;;;2.00;2.00;;;;;;;;5068339;28;8944;-79
2023/10/26 07:22:23;;;;;;;;;3.50;3.50;;;;;;;;5058618;28;8932;-76
2023/10/26 07:24:53;;;;;;;;;2.00;2.00;;;;;;;;5071448;28;8904;-75
2023/10/26 07:27:21;;;;;;;;;2.75;2.75;;;;;;;;5062611;28;8826;-75
2023/10/26 07:29:48;;;;;;;;;0.50;0.50;;;;;;;;5066347;28;8973;-78
2023/10/26 07:32:15;;;;;;;;;3.00;3.00;;;;;;;;5065117;28;8811;-78
2023/10/26 07:34:42;;;;;;;;;2.50;2.50;;;;;;;;5063119;28;9617;-74
2023/10/26 07:37:09;;;;;;;;;2.00;2.00;;;;;;;;5060733;28;8877;-75
2023/10/26 07:39:37;;;;;;;;;3.50;3.00;;;;;;;;5066895;28;8862;-74
2023/10/26 07:42:06;;;;;;;;;1.00;1.00;;;;;;;;5063230;28;8875;-73
2023/10/26 07:44:37;;;;;;;;;3.00;3.00;;;;;;;;5066704;28;8857;-74
2023/10/26 07:47:07;;;;;;;;;2.00;2.00;;;;;;;;5059952;28;8873;-75
2023/10/26 07:49:35;;;;;;;;;2.00;2.00;;;;;;;;5062103;28;8936;-76
2023/10/26 07:52:02;;;;;;;;;1.75;1.25;;;;;;;;5062725;28;9747;-74
2023/10/26 07:54:29;;;;;;;;;2.25;2.25;;;;;;;;5067332;28;8872;-74
2023/10/26 07:56:56;;;;;;;;;2.50;2.50;;;;;;;;5062142;28;8885;-74
2023/10/26 07:59:25;;;;;;;;;3.00;2.00;;;;;;;;5066259;28;9300;-74
2023/10/26 08:01:55;;;;;;;;;3.00;3.00;;;;;;;;5066564;28;8829;-76
2023/10/26 08:04:22;;;;;;;;;4.50;3.00;;;;;;;;5066641;28;8869;-75
2023/10/26 08:06:51;;;;;;;;;4.50;2.00;;;;;;;;5063357;28;8859;-74
2023/10/26 08:09:18;;;;;;;;;1.50;1.50;;;;;;;;5066556;28;8847;-76
2023/10/26 08:11:45;;;;;;;;;4.75;3.00;;;;;;;;5064212;28;8890;-75
2023/10/26 08:14:12;;;;;;;;;0.75;0.75;;;;;;;;5066394;28;8841;-74
2023/10/26 08:16:42;;;;;;;;;3.50;3.25;;;;;;;;5071454;28;8889;-76
2023/10/26 08:19:10;;;;;;;;;1.75;1.75;;;;;;;;5070711;28;9712;-78
2023/10/26 08:21:37;;;;;;;;;3.00;3.00;;;;;;;;5066572;28;8869;-75
2023/10/26 08:24:05;;;;;;;;;3.00;3.00;;;;;;;;5069935;28;8839;-74
2023/10/26 08:26:33;;;;;;;;;2.75;2.75;;;;;;;;5059347;28;8860;-73
2023/10/26 08:29:00;;;;;;;;;4.50;3.00;;;;;;;;5070433;28;8997;-79
2023/10/26 08:31:27;;;;;;;;;4.00;2.25;;;;;;;;5070083;28;8791;-73
2023/10/26 08:33:57;;;;;;;;;4.00;4.00;;;;;;;;5069618;28;8846;-74
2023/10/26 08:36:25;;;;;;;;;3.00;3.00;;;;;;;;5070441;28;8866;-84
2023/10/26 08:38:55;;;;;;;;;4.00;2.75;;;;;;;;5070573;28;8863;-77
2023/10/26 08:41:22;;;;;;;;;2.75;2.75;;;;;;;;5070391;28;9617;-76
2023/10/26 08:43:50;;;;;;;;;2.75;2.75;;;;;;;;5070450;28;8867;-76
2023/10/26 08:46:19;;;;;;;;;2.25;2.25;;;;;;;;5069419;28;8952;-74
2023/10/26 08:48:47;;;;;;;;;5.00;3.00;;;;;;;;5071107;28;8957;-74
2023/10/26 08:51:16;;;;;;;;;3.50;2.00;;;;;;;;5070025;28;8985;-74
2023/10/26 08:53:46;;;;;;;;;1.75;0.50;;;;;;;;5070889;28;8823;-75
2023/10/26 08:56:15;;;;;;;;;4.00;2.50;;;;;;;;5070199;28;8994;-74
2023/10/26 08:58:43;;;;;;;;;3.50;1.75;;;;;;;;5072133;28;8851;-74
2023/10/26 09:01:10;;;;;;;;;3.25;3.25;;;;;;;;5071276;28;8795;-79
2023/10/26 09:03:37;;;;;;;;;2.00;2.00;;;;;;;;5073500;28;8883;-73
2023/10/26 09:06:10;;;;;;;;;4.00;1.50;;;;;;;;5071725;28;8847;-74
2023/10/26 09:08:39;;;;;;;;;1.00;1.00;;;;;;;;5072900;28;8908;-74
2023/10/26 09:11:22;;;;;;;;;1.50;1.50;;;;;;;;5069837;28;8843;-80
2023/10/26 09:13:52;;;;;;;;;3.50;1.75;;;;;;;;5069441;28;8857;-79
2023/10/26 09:16:20;;;;;;;;;2.00;2.00;;;;;;;;5069871;28;8977;-80
2023/10/26 09:18:51;;;;;;;;;3.50;3.00;;;;;;;;5069550;28;8885;-81
2023/10/26 09:21:18;;;;;;;;;6.50;1.75;;;;;;;;5068206;28;8866;-76
2023/10/26 09:23:48;;;;;;;;;6.50;1.50;;;;;;;;5067418;28;8954;-78
2023/10/26 09:26:15;;;;;;;;;3.50;2.00;;;;;;;;5060270;28;8845;-84
2023/10/26 09:28:56;;;;;;;;;3.75;2.00;;;;;;;;5066261;28;8859;-79
2023/10/26 09:31:24;;;;;;;;;3.25;2.75;;;;;;;;5069084;28;8771;-76
2023/10/26 09:33:53;;;;;;;;;5.50;4.00;;;;;;;;5068433;28;9601;-76
2023/10/26 09:36:21;;;;;;;;;3.25;2.75;;;;;;;;5069639;28;8974;-77
2023/10/26 09:38:50;;;;;;;;;4.00;3.25;;;;;;;;5069496;28;8870;-83
2023/10/26 09:41:19;;;;;;;;;2.00;2.00;;;;;;;;5068545;28;8855;-78
2023/10/26 09:43:47;;;;;;;;;3.75;3.75;;;;;;;;5058593;28;8854;-77
2023/10/26 09:46:17;;;;;;;;;6.00;4.25;;;;;;;;5068481;28;8985;-80
2023/10/26 09:48:44;;;;;;;;;3.75;3.00;;;;;;;;5068667;28;8855;-79
2023/10/26 09:51:14;;;;;;;;;2.50;2.50;;;;;;;;5067308;28;8896;-77
2023/10/26 09:53:42;;;;;;;;;11.00;4.67;;;;;;;;5068732;28;8877;-77
2023/10/26 09:56:18;;;;;;;;;4.50;2.50;;;;;;;;5066971;28;8973;-77
2023/10/26 09:58:46;;;;;;;;;3.25;2.25;;;;;;;;5069206;28;9691;-77
2023/10/26 10:01:33;;;;;;;;;3.00;3.00;;;;;;;;5067842;28;9621;-74
2023/10/26 10:04:00;;;;;;;;;5.00;2.75;;;;;;;;5068813;28;8886;-72
2023/10/26 10:06:51;;;;;;;;;4.75;1.50;;;;;;;;5057497;28;9687;-74
2023/10/26 10:09:21;;;;;;;;;4.00;2.00;;;;;;;;5068599;28;8847;-76
2023/10/26 10:12:21;;;;;;;;;6.50;3.75;;;;;;;;5069025;28;8874;-74
2023/10/26 10:15:01;;;;;;;;;6.25;3.50;;;;;;;;5059220;28;8857;-74
2023/10/26 10:18:04;;;;;;;;;3.00;3.00;;;;;;;;5068675;28;8874;-76
2023/10/26 10:20:38;;;;;;;;;7.75;2.75;;;;;;;;5068744;28;8892;-73
2023/10/26 10:23:07;;;;;;;;;7.75;3.50;;;;;;;;5071088;28;8839;-76
2023/10/26 10:26:01;;;;;;;;;3.00;3.00;;;;;;;;5064509;28;8841;-76
2023/10/26 10:28:51;;;;;;;;;4.50;2.00;;;;;;;;5041113;28;8908;-80
2023/10/26 10:31:41;;;;;;;;;2.50;2.25;;;;;;;;5069267;28;8811;-77
2023/10/26 10:34:10;;;;;;;;;4.50;1.00;;;;;;;;5063936;28;8861;-74
2023/10/26 10:37:14;;;;;;;;;4.50;2.00;;;;;;;;5069268;28;8932;-74
2023/10/26 10:40:11;;;;;;;;;3.50;2.75;;;;;;;;5040675;28;8967;-74
2023/10/26 10:42:40;;;;;;;;;4.75;2.00;;;;;;;;5069214;28;8869;-75
2023/10/26 10:45:12;;;;;;;;;4.00;1.00;;;;;;;;5063563;28;8862;-75
2023/10/26 10:47:41;;;;;;;;;2.00;1.00;;;;;;;;5058512;28;8854;-73
2023/10/26 10:50:16;;;;;;;;;2.75;2.25;;;;;;;;5065595;28;8831;-74
2023/10/26 10:52:43;;;;;;;;;2.00;2.00;;;;;;;;5070087;28;8997;-75
2023/10/26 10:55:10;;;;;;;;;1.50;1.00;;;;;;;;5066403;28;8888;-73
2023/10/26 10:57:55;;;;;;;;;3.75;2.00;;;;;;;;5072901;28;8877;-76
2023/10/26 11:00:23;;;;;;;;;3.50;2.75;;;;;;;;5062048;28;8871;-81
2023/10/26 11:02:56;;;;;;;;;5.00;3.50;;;;;;;;5061033;28;8865;-79
2023/10/26 11:05:36;;;;;;;;;4.25;3.50;;;;;;;;5067824;28;8870;-77
2023/10/26 11:08:05;;;;;;;;;5.50;2.00;;;;;;;;5062671;28;8863;-78
2023/10/26 11:10:33;;;;;;;;;4.00;2.75;;;;;;;;5067624;28;8900;-77
2023/10/26 11:13:00;;;;;;;;;5.50;3.50;;;;;;;;5067357;28;8897;-77
2023/10/26 11:15:36;;;;;;;;;3.25;2.25;;;;;;;;5067432;28;8846;-79
2023/10/26 11:18:06;;;;;;;;;4.50;3.00;;;;;;;;5067154;28;8843;-77
2023/10/26 11:20:34;;;;;;;;;5.00;2.25;;;;;;;;5067750;28;8843;-76
2023/10/26 11:23:01;;;;;;;;;5.00;3.00;;;;;;;;5067563;28;8878;-76
2023/10/26 11:25:33;;;;;;;;;2.25;1.50;;;;;;;;5065209;28;8864;-76
2023/10/26 11:28:00;;;;;;;;;4.00;1.50;;;;;;;;5067010;28;8888;-76
2023/10/26 11:30:31;;;;;;;;;5.50;2.25;;;;;;;;5064502;28;9704;-77
2023/10/26 11:32:58;;;;;;;;;3.25;1.75;;;;;;;;5067307;28;8969;-78
2023/10/26 11:35:28;;;;;;;;;2.75;2.00;;;;;;;;5065209;28;8867;-76
2023/10/26 11:37:56;;;;;;;;;3.75;2.50;;;;;;;;5067389;28;8847;-78
2023/10/26 11:40:31;;;;;;;;;4.50;2.00;;;;;;;;5065273;28;8862;-75
2023/10/26 11:43:02;;;;;;;;;3.00;1.75;;;;;;;;5066456;28;8843;-78
2023/10/26 11:45:48;;;;;;;;;2.00;2.00;;;;;;;;5056376;28;8835;-77
2023/10/26 11:48:27;;;;;;;;;4.00;3.75;;;;;;;;5065415;28;8838;-77
2023/10/26 11:50:55;;;;;;;;;8.25;3.00;;;;;;;;5067001;28;8892;-77
2023/10/26 11:53:23;;;;;;;;;8.50;2.00;;;;;;;;5065163;28;8859;-78
2023/10/26 11:55:51;;;;;;;;;5.25;2.00;;;;;;;;5067106;28;8859;-76
2023/10/26 11:58:18;;;;;;;;;2.75;2.75;;;;;;;;5066531;28;8877;-77
2023/10/26 12:00:46;;;;;;;;;6.25;2.00;;;;;;;;5065171;28;8799;-76
2023/10/26 12:03:13;;;;;;;;;7.75;2.00;;;;;;;;5066841;28;8881;-77
2023/10/26 12:05:41;;;;;;;;;4.00;1.00;;;;;;;;5066520;28;8885;-76
2023/10/26 12:08:09;;;;;;;;;3.00;2.00;;;;;;;;5066834;28;8843;-78
2023/10/26 12:10:39;;;;;;;;;3.25;1.00;;;;;;;;5066923;28;8857;-76
2023/10/26 12:13:06;;;;;;;;;5.00;2.50;;;;;;;;5066696;28;8874;-77
2023/10/26 12:15:33;;;;;;;;;3.00;1.00;;;;;;;;5065669;28;9001;-77
2023/10/26 12:18:06;;;;;;;;;2.75;2.75;;;;;;;;5066717;28;10032;-76
2023/10/26 12:20:33;;;;;;;;;0.75;0.75;;;;;;;;5066272;28;8977;-76
2023/10/26 12:23:03;;;;;;;;;2.75;2.00;;;;;;;;5067283;28;8973;-76
2023/10/26 12:25:32;;;;;;;;;2.00;2.00;;;;;;;;5063580;28;9385;-75
2023/10/26 12:28:00;;;;;;;;;3.50;2.00;;;;;;;;5058279;28;8838;-75
2023/10/26 12:30:27;;;;;;;;;2.00;2.00;;;;;;;;5066959;28;8795;-76
2023/10/26 12:32:54;;;;;;;;;2.00;2.00;;;;;;;;5068192;28;8986;-76
2023/10/26 12:35:21;;;;;;;;;4.50;2.50;;;;;;;;5070891;28;8868;-77
2023/10/26 12:37:48;;;;;;;;;3.75;1.75;;;;;;;;5069542;28;8849;-75
2023/10/26 12:40:18;;;;;;;;;5.25;2.75;;;;;;;;5069118;28;8875;-76
2023/10/26 12:42:46;;;;;;;;;2.50;2.00;;;;;;;;5071158;28;8931;-77
2023/10/26 12:45:14;;;;;;;;;4.25;2.75;;;;;;;;5067452;28;8858;-81
2023/10/26 12:47:41;;;;;;;;;1.75;1.75;;;;;;;;5067020;28;8851;-76
2023/10/26 12:50:09;;;;;;;;;1.50;1.50;;;;;;;;5066236;28;8990;-78
2023/10/26 12:52:36;;;;;;;;;2.50;2.25;;;;;;;;5066845;28;8969;-77
2023/10/26 12:55:03;;;;;;;;;2.50;1.00;;;;;;;;5066672;28;8857;-78
2023/10/26 12:57:30;;;;;;;;;2.25;1.25;;;;;;;;5066679;28;8861;-77
2023/10/26 12:59:59;;;;;;;;;1.75;1.00;;;;;;;;5057283;28;9598;-78
2023/10/26 13:02:26;;;;;;;;;2.00;2.00;;;;;;;;5068743;28;8947;-75
2023/10/26 13:04:53;;;;;;;;;3.75;2.50;;;;;;;;5069798;28;8847;-75
2023/10/26 13:07:21;;;;;;;;;2.25;1.00;;;;;;;;5069044;28;8835;-76
2023/10/26 13:09:48;;;;;;;;;5.00;2.00;;;;;;;;5070311;28;8867;-76
2023/10/26 13:12:16;;;;;;;;;4.25;2.75;;;;;;;;5069474;28;8992;-78
2023/10/26 13:14:43;;;;;;;;;4.00;3.00;;;;;;;;5070143;28;8870;-78
2023/10/26 13:17:11;;;;;;;;;2.25;2.00;;;;;;;;5068139;28;8855;-77
2023/10/26 13:19:38;;;;;;;;;2.50;2.00;;;;;;;;5069430;28;8834;-75
2023/10/26 13:22:06;;;;;;;;;2.75;2.00;;;;;;;;5068734;28;8899;-80
2023/10/26 13:24:33;;;;;;;;;1.25;1.25;;;;;;;;5070022;28;8870;-79
2023/10/26 13:27:00;;;;;;;;;4.50;3.00;;;;;;;;5057075;28;8959;-81
2023/10/26 13:29:27;;;;;;;;;1.00;1.00;;;;;;;;5070441;28;8871;-79
2023/10/26 13:31:54;;;;;;;;;2.00;2.00;;;;;;;;5068557;28;8828;-83
2023/10/26 13:34:23;;;;;;;;;2.00;2.00;;;;;;;;5069569;28;8965;-75
2023/10/26 13:36:50;;;;;;;;;2.50;2.00;;;;;;;;5069339;28;8847;-78
2023/10/26 13:39:17;;;;;;;;;3.00;1.25;;;;;;;;5070414;28;8869;-79
2023/10/26 13:41:46;;;;;;;;;1.75;1.00;;;;;;;;5071744;28;8846;-75
2023/10/26 13:44:13;;;;;;;;;2.00;2.00;;;;;;;;5073253;28;8969;-77
2023/10/26 13:46:40;;;;;;;;;5.00;3.75;;;;;;;;5068816;28;8865;-82
2023/10/26 13:49:09;;;;;;;;;1.00;1.00;;;;;;;;5069450;28;8858;-75
2023/10/26 13:51:38;;;;;;;;;4.75;2.25;;;;;;;;5069476;28;8839;-76
2023/10/26 13:54:06;;;;;;;;;2.25;1.00;;;;;;;;5069630;28;8851;-78
2023/10/26 13:56:34;;;;;;;;;1.00;1.00;;;;;;;;5068916;28;8838;-78
2023/10/26 13:59:02;;;;;;;;;3.50;1.50;;;;;;;;5069956;28;8866;-77
2023/10/26 14:01:30;;;;;;;;;2.25;2.25;;;;;;;;5068632;28;8829;-76
2023/10/26 14:03:57;;;;;;;;;3.50;2.25;;;;;;;;5069199;28;8923;-76
2023/10/26 14:06:25;;;;;;;;;2.00;2.00;;;;;;;;5069160;28;8839;-79
2023/10/26 14:08:57;;;;;;;;;6.50;2.25;;;;;;;;5068246;28;8850;-75
2023/10/26 14:11:29;;;;;;;;;2.75;1.00;;;;;;;;5060930;28;8888;-77
2023/10/26 14:13:56;;;;;;;;;2.00;2.00;;;;;;;;5052386;28;8865;-76
2023/10/26 14:16:24;;;;;;;;;4.00;3.50;;;;;;;;5070301;28;8856;-76
2023/10/26 14:18:52;;;;;;;;;2.50;2.00;;;;;;;;5068516;28;8865;-75
2023/10/26 14:21:19;;;;;;;;;2.25;2.00;;;;;;;;5063025;28;8969;-77
2023/10/26 14:23:46;;;;;;;;;2.25;0.00;;;;;;;;5069331;28;8857;-75
2023/10/26 14:26:16;;;;;;;;;1.25;1.25;;;;;;;;5054817;28;8846;-75
2023/10/26 14:28:46;;;;;;;;;2.75;1.00;;;;;;;;5070166;28;8850;-77
2023/10/26 14:31:15;;;;;;;;;1.50;1.00;;;;;;;;5070694;28;9288;-75
2023/10/26 14:33:42;;;;;;;;;3.50;3.00;;;;;;;;5068623;28;8839;-76
2023/10/26 14:36:09;;;;;;;;;4.25;2.00;;;;;;;;5068475;28;8851;-76
2023/10/26 14:38:37;;;;;;;;;3.75;2.25;;;;;;;;5067554;28;8850;-79
2023/10/26 14:41:04;;;;;;;;;4.25;3.25;;;;;;;;5068220;28;8867;-75
2023/10/26 14:43:33;;;;;;;;;2.50;2.50;;;;;;;;5068100;28;8878;-76
2023/10/26 14:46:00;;;;;;;;;3.25;3.25;;;;;;;;5068158;28;8896;-78
2023/10/26 14:48:27;;;;;;;;;5.00;4.50;;;;;;;;5067810;28;8859;-78
2023/10/26 14:51:02;;;;;;;;;2.00;2.00;;;;;;;;5068464;28;8842;-75
2023/10/26 14:53:31;;;;;;;;;3.75;1.00;;;;;;;;5056349;28;8847;-76
2023/10/26 14:56:01;;;;;;;;;3.25;3.25;;;;;;;;5067764;28;8909;-76
2023/10/26 14:58:29;;;;;;;;;3.25;2.00;;;;;;;;5068230;28;8882;-76
2023/10/26 15:00:57;;;;;;;;;7.25;2.75;;;;;;;;5066839;28;8795;-78
2023/10/26 15:03:24;;;;;;;;;5.00;3.75;;;;;;;;5067832;28;8843;-79
2023/10/26 15:05:53;;;;;;;;;4.25;3.00;;;;;;;;5055264;28;8849;-81